createdAt,value
2022-10-02T00:01:27.289Z,100487.28
2022-10-02T00:03:57.579Z,100480.41
2022-10-02T00:06:27.497Z,100487.69
2022-10-02T00:08:59.855Z,100488.59
2022-10-02T00:11:29.596Z,100494.47
2022-10-02T00:13:59.236Z,100494.50
2022-10-02T00:16:33.628Z,100496.41
2022-10-02T00:19:03.876Z,100495.63
2022-10-02T00:21:38.516Z,100496.50
2022-10-02T00:24:07.768Z,100498.53
2022-10-02T00:26:39.792Z,100509.38
2022-10-02T00:29:17.529Z,100502.75
2022-10-02T00:31:49.444Z,100495.28
2022-10-02T00:34:27.702Z,100483.75
2022-10-02T00:37:00.609Z,100493.38
2022-10-02T00:39:40.125Z,100502.53
2022-10-02T00:42:32.401Z,100513.91
2022-10-02T00:45:21.173Z,100508.50
2022-10-02T00:47:54.377Z,100510.16
2022-10-02T00:50:33.029Z,100514.13
2022-10-02T00:53:10.184Z,100511.94
2022-10-02T00:55:54.109Z,100518.91
2022-10-02T00:58:49.848Z,100517.31
2022-10-02T01:01:43.711Z,100515.13
2022-10-02T01:04:14.725Z,100525.94
2022-10-02T01:06:43.847Z,100518.97
2022-10-02T01:09:12.293Z,100530.31
2022-10-02T01:11:40.600Z,100527.53
2022-10-02T01:14:08.705Z,100529.72
2022-10-02T01:16:36.516Z,100532.22
2022-10-02T01:19:04.566Z,100535.34
2022-10-02T01:21:37.808Z,100533.88
2022-10-02T01:24:11.089Z,100535.94
2022-10-02T01:26:40.124Z,100544.03
2022-10-02T01:29:07.814Z,100541.59
2022-10-02T01:31:36.678Z,100548.03
2022-10-02T01:34:04.584Z,100543.16
2022-10-02T01:36:32.391Z,100542.16
2022-10-02T01:39:00.189Z,100550.53
2022-10-02T01:41:27.858Z,100547.78
2022-10-02T01:43:59.288Z,100546.91
2022-10-02T01:46:37.116Z,100552.53
2022-10-02T01:49:24.397Z,100554.47
2022-10-02T01:52:14.272Z,100558.44
2022-10-02T01:54:51.649Z,100552.22
2022-10-02T01:57:26.536Z,100553.84
2022-10-02T02:00:06.133Z,100550.25
2022-10-02T02:02:42.692Z,100557.66
2022-10-02T02:05:13.309Z,100554.13
2022-10-02T02:07:47.303Z,100556.28
2022-10-02T02:10:19.553Z,100559.38
2022-10-02T02:12:52.129Z,100559.53
2022-10-02T02:15:24.752Z,100566.03
2022-10-02T02:17:55.597Z,100559.84
2022-10-02T02:20:26.418Z,100558.53
2022-10-02T02:22:55.492Z,100558.66
2022-10-02T02:25:26.508Z,100564.59
2022-10-02T02:27:57.299Z,100565.91
2022-10-02T02:30:26.613Z,100567.38
2022-10-02T02:32:56.614Z,100569.88
2022-10-02T02:35:27.228Z,100562.38
2022-10-02T02:37:57.566Z,100572.28
2022-10-02T02:40:28.461Z,100577.44
2022-10-02T02:42:59.117Z,100583.03
2022-10-02T02:45:30.441Z,100579.53
2022-10-02T02:48:03.989Z,100572.44
2022-10-02T02:50:34.267Z,100562.94
2022-10-02T02:53:05.932Z,100565.53
2022-10-02T02:55:37.605Z,100568.03
2022-10-02T02:58:11.050Z,100571.44
2022-10-02T03:00:40.380Z,100572.44
2022-10-02T03:03:08.298Z,100575.53
2022-10-02T03:05:37.356Z,100577.19
2022-10-02T03:08:07.038Z,100574.25
2022-10-02T03:10:42.788Z,100578.09
2022-10-02T03:13:22.680Z,100584.50
2022-10-02T03:16:02.425Z,100580.06
2022-10-02T03:18:46.679Z,100576.91
2022-10-02T03:21:16.569Z,100580.31
2022-10-02T03:23:55.728Z,100580.31
2022-10-02T03:26:31.880Z,100582.28
2022-10-02T03:29:02.642Z,100575.69
2022-10-02T03:31:33.387Z,100580.34
2022-10-02T03:34:02.547Z,100583.81
2022-10-02T03:36:31.056Z,100587.03
2022-10-02T03:39:24.135Z,100587.78
2022-10-02T03:42:06.651Z,100594.94
2022-10-02T03:44:34.453Z,100593.50
2022-10-02T03:47:04.019Z,100591.28
2022-10-02T03:49:31.691Z,100579.09
2022-10-02T03:51:59.387Z,100580.97
2022-10-02T03:54:27.569Z,100587.81
2022-10-02T03:56:56.871Z,100591.72
2022-10-02T03:59:35.746Z,100590.81
2022-10-02T04:02:08.429Z,100584.84
2022-10-02T04:04:43.725Z,100587.09
2022-10-02T04:07:16.058Z,100581.41
2022-10-02T04:09:47.886Z,100582.03
2022-10-02T04:12:17.904Z,100598.28
2022-10-02T04:14:50.363Z,100598.47
2022-10-02T04:17:21.892Z,100586.59
2022-10-02T04:19:52.866Z,100594.94
2022-10-02T04:22:27.542Z,100600.72
2022-10-02T04:24:59.780Z,100601.16
2022-10-02T04:27:33.765Z,100609.19
2022-10-02T04:30:05.730Z,100600.34
2022-10-02T04:32:37.800Z,100595.22
2022-10-02T04:35:10.308Z,100604.22
2022-10-02T04:38:00.141Z,100599.81
2022-10-02T04:40:43.412Z,100601.94
2022-10-02T04:43:24.993Z,100603.50
2022-10-02T04:46:05.253Z,100609.00
2022-10-02T04:49:20.860Z,100612.81
2022-10-02T04:52:07.057Z,100614.16
2022-10-02T04:54:44.473Z,100617.34
2022-10-02T04:57:27.993Z,100614.25
2022-10-02T05:00:08.921Z,100608.91
2022-10-02T05:02:54.592Z,100612.44
2022-10-02T05:05:28.649Z,100612.22
2022-10-02T05:08:17.450Z,100612.19
2022-10-02T05:11:03.861Z,100606.47
2022-10-02T05:13:42.544Z,100609.53
2022-10-02T05:16:20.176Z,100617.25
2022-10-02T05:18:59.149Z,100607.94
2022-10-02T05:21:44.980Z,100616.81
2022-10-02T05:24:27.837Z,100615.44
2022-10-02T05:27:10.349Z,100609.63
2022-10-02T05:29:54.149Z,100614.94
2022-10-02T05:33:11.604Z,100610.88
2022-10-02T05:36:10.385Z,100608.06
2022-10-02T05:39:07.200Z,100613.44
2022-10-02T05:41:59.972Z,100612.66
2022-10-02T05:44:49.649Z,100622.38
2022-10-02T05:47:39.317Z,100623.81
2022-10-02T05:50:28.693Z,100628.94
2022-10-02T05:53:20.314Z,100630.38
2022-10-02T05:56:09.518Z,100634.03
2022-10-02T05:58:59.940Z,100637.72
2022-10-02T06:01:48.834Z,100627.91
2022-10-02T06:04:38.925Z,100636.84
2022-10-02T06:07:27.805Z,100637.34
2022-10-02T06:10:17.177Z,100642.22
2022-10-02T06:13:09.030Z,100646.03
2022-10-02T06:16:04.969Z,100648.28
2022-10-02T06:18:55.390Z,100653.56
2022-10-02T06:21:44.881Z,100658.59
2022-10-02T06:24:35.225Z,100657.66
2022-10-02T06:27:28.081Z,100664.03
2022-10-02T06:30:16.433Z,100679.19
2022-10-02T06:33:06.443Z,100696.97
2022-10-02T06:36:15.110Z,100700.22
2022-10-02T06:39:10.563Z,100712.63
2022-10-02T06:42:04.961Z,100705.31
2022-10-02T06:45:00.192Z,100707.94
2022-10-02T06:48:06.309Z,100713.53
2022-10-02T06:51:02.420Z,100715.31
2022-10-02T06:54:04.136Z,100707.03
2022-10-02T06:57:12.303Z,100700.09
2022-10-02T07:00:09.393Z,100680.44
2022-10-02T07:03:06.558Z,100685.84
2022-10-02T07:06:22.243Z,100678.97
2022-10-02T07:09:30.580Z,100679.25
2022-10-02T07:12:33.934Z,100688.28
2022-10-02T07:15:41.050Z,100684.00
2022-10-02T07:18:37.199Z,100677.63
2022-10-02T07:21:30.369Z,100674.50
2022-10-02T07:24:32.014Z,100684.75
2022-10-02T07:27:22.673Z,100685.94
2022-10-02T07:30:11.364Z,100688.59
2022-10-02T07:33:04.089Z,100690.88
2022-10-02T07:35:56.125Z,100691.47
2022-10-02T07:38:55.937Z,100697.69
2022-10-02T07:42:06.374Z,100696.31
2022-10-02T07:45:34.221Z,100702.53
2022-10-02T07:48:35.370Z,100701.28
2022-10-02T07:51:47.924Z,100713.53
2022-10-02T07:55:18.772Z,100714.13
2022-10-02T07:58:07.332Z,100714.41
2022-10-02T08:00:58.485Z,100717.97
2022-10-02T08:03:46.684Z,100726.06
2022-10-02T08:06:35.093Z,100738.59
2022-10-02T08:09:24.498Z,100731.03
2022-10-02T08:12:22.393Z,100738.47
2022-10-02T08:15:15.632Z,100738.53
2022-10-02T08:18:30.008Z,100743.78
2022-10-02T08:21:15.452Z,100750.53
2022-10-02T08:24:06.265Z,100751.44
2022-10-02T08:26:56.631Z,100762.97
2022-10-02T08:29:45.977Z,100758.94
2022-10-02T08:32:36.113Z,100768.09
2022-10-02T08:35:23.538Z,100775.34
2022-10-02T08:38:33.816Z,100769.50
2022-10-02T08:41:30.410Z,100768.88
2022-10-02T08:44:22.449Z,100775.94
2022-10-02T08:47:16.502Z,100773.25
2022-10-02T08:50:19.936Z,100772.66
2022-10-02T08:53:19.249Z,100759.72
2022-10-02T08:56:05.882Z,100775.31
2022-10-02T08:59:05.453Z,100782.44
2022-10-02T09:01:49.477Z,100783.28
2022-10-02T09:04:42.260Z,100777.53
2022-10-02T09:07:46.216Z,100776.03
2022-10-02T09:10:49.693Z,100772.00
2022-10-02T09:13:44.671Z,100786.06
2022-10-02T09:16:13.864Z,100780.97
2022-10-02T09:18:52.220Z,100780.22
2022-10-02T09:21:20.704Z,100786.44
2022-10-02T09:24:13.189Z,100792.00
2022-10-02T09:27:22.341Z,100788.56
2022-10-02T09:30:27.901Z,100791.91
2022-10-02T09:33:16.182Z,100792.38
2022-10-02T09:36:12.045Z,100788.66
2022-10-02T09:39:31.039Z,100787.38
2022-10-02T09:42:37.652Z,100791.44
2022-10-02T09:45:37.594Z,100788.19
2022-10-02T09:48:23.642Z,100797.63
2022-10-02T09:51:28.361Z,100793.81
2022-10-02T09:54:48.042Z,100788.19
2022-10-02T09:57:44.265Z,100800.09
2022-10-02T10:00:22.485Z,100828.31
2022-10-02T10:03:22.537Z,100818.03
2022-10-02T10:05:58.805Z,100823.97
2022-10-02T10:09:04.588Z,100812.94
2022-10-02T10:12:15.537Z,100805.03
2022-10-02T10:15:24.129Z,100812.00
2022-10-02T10:18:34.067Z,100813.94
2022-10-02T10:21:59.793Z,100817.34
2022-10-02T10:25:10.684Z,100799.22
2022-10-02T10:28:09.381Z,100805.50
2022-10-02T10:31:31.386Z,100812.25
2022-10-02T10:34:48.579Z,100814.97
2022-10-02T10:38:12.424Z,100821.44
2022-10-02T10:41:22.852Z,100818.25
2022-10-02T10:44:32.857Z,100808.25
2022-10-02T10:47:26.513Z,100807.19
2022-10-02T10:50:25.694Z,100818.63
2022-10-02T10:53:24.774Z,100808.69
2022-10-02T10:56:36.943Z,100825.72
2022-10-02T10:59:57.069Z,100821.41
2022-10-02T11:03:17.371Z,100818.16
2022-10-02T11:06:27.320Z,100816.84
2022-10-02T11:09:35.793Z,100815.50
2022-10-02T11:12:39.025Z,100819.53
2022-10-02T11:15:39.399Z,100829.28
2022-10-02T11:18:39.913Z,100827.34
2022-10-02T11:21:56.357Z,100829.25
2022-10-02T11:25:03.494Z,100827.09
2022-10-02T11:28:10.356Z,100829.84
2022-10-02T11:31:10.041Z,100834.41
2022-10-02T11:34:19.696Z,100835.50
2022-10-02T11:37:17.215Z,100830.91
2022-10-02T11:40:22.104Z,100837.34
2022-10-02T11:43:25.666Z,100831.16
2022-10-02T11:46:24.318Z,100836.06
2022-10-02T11:49:32.690Z,100832.31
2022-10-02T11:52:32.092Z,100835.81
2022-10-02T11:55:30.061Z,100829.63
2022-10-02T11:58:23.902Z,100832.84
2022-10-02T12:01:17.399Z,100836.38
2022-10-02T12:04:22.854Z,100846.13
2022-10-02T12:07:20.741Z,100840.72
2022-10-02T12:10:20.334Z,100843.97
2022-10-02T12:13:21.256Z,100846.94
2022-10-02T12:16:12.001Z,100836.41
2022-10-02T12:19:06.469Z,100846.13
2022-10-02T12:22:19.033Z,100862.13
2022-10-02T12:25:37.171Z,100855.34
2022-10-02T12:28:31.560Z,100853.47
2022-10-02T12:31:05.198Z,100858.31
2022-10-02T12:33:40.861Z,100852.91
2022-10-02T12:36:35.713Z,100860.50
2022-10-02T12:39:12.131Z,100868.88
2022-10-02T12:41:54.512Z,100868.88
2022-10-02T12:44:45.003Z,100872.91
2022-10-02T12:47:49.247Z,100881.53
2022-10-02T12:50:27.736Z,100884.78
2022-10-02T12:53:18.398Z,100878.88
2022-10-02T12:56:03.059Z,100879.47
2022-10-02T12:58:42.090Z,100877.28
2022-10-02T13:01:49.885Z,100866.44
2022-10-02T13:04:37.943Z,100863.22
2022-10-02T13:07:42.543Z,100871.34
2022-10-02T13:10:16.433Z,100873.50
2022-10-02T13:12:56.357Z,100873.50
2022-10-02T13:15:35.752Z,100871.38
2022-10-02T13:18:17.594Z,100892.47
2022-10-02T13:20:50.211Z,100885.19
2022-10-02T13:23:25.440Z,100888.16
2022-10-02T13:26:00.658Z,100889.50
2022-10-02T13:28:49.122Z,100886.25
2022-10-02T13:31:26.865Z,100885.97
2022-10-02T13:34:05.357Z,100886.53
2022-10-02T13:36:41.316Z,100893.56
2022-10-02T13:39:20.842Z,100898.47
2022-10-02T13:41:59.838Z,100893.59
2022-10-02T13:44:35.577Z,100896.00
2022-10-02T13:47:18.697Z,100889.78
2022-10-02T13:49:58.230Z,100883.56
2022-10-02T13:52:33.472Z,100894.41
2022-10-02T13:55:12.719Z,100897.91
2022-10-02T13:57:49.926Z,100902.25
2022-10-02T14:00:24.186Z,100899.00
2022-10-02T14:03:05.836Z,100903.91
2022-10-02T14:05:38.937Z,100905.56
2022-10-02T14:08:16.283Z,100895.81
2022-10-02T14:10:54.068Z,100916.88
2022-10-02T14:13:34.813Z,100917.19
2022-10-02T14:16:15.901Z,100916.63
2022-10-02T14:19:00.964Z,100912.00
2022-10-02T14:21:32.646Z,100914.16
2022-10-02T14:24:20.498Z,100925.56
2022-10-02T14:26:57.741Z,100927.44
2022-10-02T14:29:39.059Z,100940.94
2022-10-02T14:32:27.715Z,100935.00
2022-10-02T14:35:25.715Z,100932.56
2022-10-02T14:38:22.949Z,100924.94
2022-10-02T14:40:53.268Z,100926.53
2022-10-02T14:43:39.485Z,100936.31
2022-10-02T14:46:20.932Z,100943.91
2022-10-02T14:49:12.790Z,100938.53
2022-10-02T14:52:00.438Z,100946.91
2022-10-02T14:54:41.624Z,100950.44
2022-10-02T14:57:29.827Z,100955.31
2022-10-02T15:00:06.894Z,100944.19
2022-10-02T15:02:57.377Z,100936.34
2022-10-02T15:05:39.089Z,100946.63
2022-10-02T15:08:14.340Z,100960.19
2022-10-02T15:10:43.485Z,100940.94
2022-10-02T15:13:15.931Z,100951.78
2022-10-02T15:15:48.010Z,100956.91
2022-10-02T15:18:25.652Z,100957.47
2022-10-02T15:20:59.497Z,100961.25
2022-10-02T15:23:46.115Z,100961.25
2022-10-02T15:26:33.785Z,100956.44
2022-10-02T15:29:11.604Z,100966.91
2022-10-02T15:31:44.213Z,100968.81
2022-10-02T15:34:21.555Z,100965.00
2022-10-02T15:37:05.204Z,100968.19
2022-10-02T15:39:45.166Z,100975.56
2022-10-02T15:42:17.416Z,100985.00
2022-10-02T15:45:07.716Z,101001.69
2022-10-02T15:47:49.767Z,101003.41
2022-10-02T15:50:28.147Z,101000.41
2022-10-02T15:53:08.238Z,101007.38
2022-10-02T15:55:45.799Z,101004.28
2022-10-02T15:58:24.400Z,101011.44
2022-10-02T16:01:08.751Z,101013.06
2022-10-02T16:03:44.727Z,101017.53
2022-10-02T16:06:20.834Z,101016.69
2022-10-02T16:09:10.477Z,101022.78
2022-10-02T16:11:52.743Z,101021.22
2022-10-02T16:14:28.771Z,101028.38
2022-10-02T16:17:14.262Z,101029.22
2022-10-02T16:19:54.127Z,101036.22
2022-10-02T16:22:31.415Z,101037.41
2022-10-02T16:25:14.117Z,101043.13
2022-10-02T16:28:05.897Z,101045.41
2022-10-02T16:30:39.900Z,101046.13
2022-10-02T16:33:20.498Z,101057.25
2022-10-02T16:36:10.519Z,101059.25
2022-10-02T16:38:48.697Z,101058.63
2022-10-02T16:41:31.045Z,101059.94
2022-10-02T16:44:10.921Z,101074.25
2022-10-02T16:46:44.110Z,101075.84
2022-10-02T16:49:21.710Z,101081.31
2022-10-02T16:51:56.475Z,101090.44
2022-10-02T16:54:28.463Z,101094.88
2022-10-02T16:56:59.518Z,101093.22
2022-10-02T16:59:31.433Z,101095.09
2022-10-02T17:02:17.442Z,101100.50
2022-10-02T17:04:55.316Z,101107.78
2022-10-02T17:07:35.214Z,101103.81
2022-10-02T17:10:09.121Z,101116.63
2022-10-02T17:12:46.717Z,101105.03
2022-10-02T17:15:22.961Z,101120.00
2022-10-02T17:18:14.597Z,101120.53
2022-10-02T17:20:44.802Z,101126.16
2022-10-02T17:23:17.871Z,101126.03
2022-10-02T17:25:51.741Z,101130.41
2022-10-02T17:28:23.324Z,101137.41
2022-10-02T17:31:06.343Z,101138.94
2022-10-02T17:33:45.408Z,101141.44
2022-10-02T17:36:19.468Z,101150.88
2022-10-02T17:39:07.144Z,101151.56
2022-10-02T17:41:47.087Z,101148.75
2022-10-02T17:44:27.202Z,101166.56
2022-10-02T17:47:23.662Z,101168.22
2022-10-02T17:50:01.674Z,101174.88
2022-10-02T17:52:53.768Z,101178.91
2022-10-02T17:55:52.373Z,101189.00
2022-10-02T17:58:25.525Z,101185.94
2022-10-02T18:01:06.046Z,101196.44
2022-10-02T18:03:59.829Z,101201.81
2022-10-02T18:06:37.970Z,101206.16
2022-10-02T18:09:18.091Z,101212.59
2022-10-02T18:11:59.357Z,101220.41
2022-10-02T18:14:48.144Z,101216.47
2022-10-02T18:17:21.930Z,101219.22
2022-10-02T18:19:56.735Z,101226.84
2022-10-02T18:22:34.098Z,101231.03
2022-10-02T18:25:14.193Z,101227.44
2022-10-02T18:28:19.116Z,101233.25
2022-10-02T18:30:50.104Z,101235.06
2022-10-02T18:33:56.848Z,101238.31
2022-10-02T18:36:37.100Z,101250.28
2022-10-02T18:39:13.677Z,101244.88
2022-10-02T18:41:53.476Z,101250.09
2022-10-02T18:44:38.681Z,101246.53
2022-10-02T18:47:12.195Z,101256.59
2022-10-02T18:49:48.820Z,101251.72
2022-10-02T18:52:58.092Z,101262.69
2022-10-02T18:56:03.145Z,101264.53
2022-10-02T18:58:47.627Z,101272.50
2022-10-02T19:01:36.771Z,101272.84
2022-10-02T19:04:48.907Z,101281.53
2022-10-02T19:07:19.215Z,101270.38
2022-10-02T19:09:47.660Z,101274.31
2022-10-02T19:12:18.886Z,101282.63
2022-10-02T19:14:46.905Z,101277.31
2022-10-02T19:17:17.792Z,101284.72
2022-10-02T19:19:45.608Z,101292.59
2022-10-02T19:22:19.995Z,101283.63
2022-10-02T19:24:49.388Z,101287.34
2022-10-02T19:27:24.069Z,101284.66
2022-10-02T19:29:56.257Z,101291.69
2022-10-02T19:32:27.270Z,101292.03
2022-10-02T19:35:01.433Z,101293.19
2022-10-02T19:37:29.662Z,101296.97
2022-10-02T19:40:00.513Z,101297.88
2022-10-02T19:42:31.908Z,101300.94
2022-10-02T19:45:02.846Z,101310.38
2022-10-02T19:47:33.889Z,101306.09
2022-10-02T19:50:04.102Z,101305.34
2022-10-02T19:52:36.899Z,101319.94
2022-10-02T19:55:07.229Z,101321.38
2022-10-02T19:57:40.040Z,101324.72
2022-10-02T20:00:15.426Z,101324.78
2022-10-02T20:02:46.337Z,101325.66
2022-10-02T20:05:20.502Z,101325.16
2022-10-02T20:07:49.468Z,101325.66
2022-10-02T20:10:22.145Z,101327.75
2022-10-02T20:12:55.293Z,101331.28
2022-10-02T20:15:39.292Z,101334.78
2022-10-02T20:18:08.081Z,101333.47
2022-10-02T20:20:37.122Z,101338.72
2022-10-02T20:23:08.616Z,101336.69
2022-10-02T20:25:39.684Z,101341.75
2022-10-02T20:28:15.129Z,101352.47
2022-10-02T20:30:47.004Z,101358.69
2022-10-02T20:33:19.064Z,101359.69
2022-10-02T20:35:50.642Z,101358.97
2022-10-02T20:38:22.073Z,101361.63
2022-10-02T20:40:53.326Z,101359.13
2022-10-02T20:43:25.883Z,101365.41
2022-10-02T20:46:04.911Z,101365.41
2022-10-02T20:49:07.905Z,101364.75
2022-10-02T20:51:57.051Z,101371.13
2022-10-02T20:54:32.930Z,101375.22
2022-10-02T20:57:43.453Z,101374.78
2022-10-02T21:00:20.806Z,101376.09
2022-10-02T21:03:18.519Z,101380.00
2022-10-02T21:06:16.064Z,101381.31
2022-10-02T21:08:59.957Z,101385.53
2022-10-02T21:11:35.666Z,101389.28
2022-10-02T21:14:41.481Z,101393.78
2022-10-02T21:17:33.360Z,101388.81
2022-10-02T21:20:51.132Z,101386.06
2022-10-02T21:23:34.429Z,101399.72
2022-10-02T21:26:26.982Z,101392.47
2022-10-02T21:29:15.943Z,101403.34
2022-10-02T21:31:52.154Z,101404.25
2022-10-02T21:34:31.862Z,101408.81
2022-10-02T21:37:00.710Z,101403.03
2022-10-02T21:43:06.645Z,101411.91
2022-10-02T21:45:58.432Z,101417.22
2022-10-02T21:49:05.204Z,101417.09
2022-10-02T21:51:51.061Z,101417.84
2022-10-02T21:54:44.914Z,101414.84
2022-10-02T21:57:29.392Z,101418.03
2022-10-02T22:00:09.577Z,101419.56
2022-10-02T22:03:13.952Z,101422.44
2022-10-02T22:06:05.348Z,101427.84
2022-10-02T22:08:43.928Z,101427.50
2022-10-02T22:11:15.809Z,101425.28
2022-10-02T22:13:44.331Z,101434.63
2022-10-02T22:16:22.123Z,101442.41
2022-10-02T22:18:52.157Z,101447.47
2022-10-02T22:21:36.631Z,101450.41
2022-10-02T22:24:20.221Z,101457.34
2022-10-02T22:27:03.472Z,101457.91
2022-10-02T22:29:44.797Z,101453.53
2022-10-02T22:32:46.801Z,101460.50
2022-10-02T22:35:25.569Z,101461.31
2022-10-02T22:38:06.113Z,101457.91
2022-10-02T22:40:45.682Z,101466.84
2022-10-02T22:43:19.197Z,101454.38
2022-10-02T22:45:49.809Z,101467.47
2022-10-02T22:48:25.866Z,101464.34
2022-10-02T22:50:56.706Z,101468.53
2022-10-02T22:53:28.380Z,101468.94
2022-10-02T22:55:58.471Z,101473.00
2022-10-02T22:58:33.713Z,101474.03
2022-10-02T23:01:07.696Z,101487.03
2022-10-02T23:03:40.938Z,101479.38
2022-10-02T23:06:15.296Z,101478.53
2022-10-02T23:08:48.058Z,101487.91
2022-10-02T23:11:20.813Z,101484.00
2022-10-02T23:13:51.968Z,101488.88
2022-10-02T23:16:25.159Z,101486.56
2022-10-02T23:18:58.941Z,101501.69
2022-10-02T23:21:32.603Z,101490.41
2022-10-02T23:24:05.645Z,101488.06
2022-10-02T23:26:38.154Z,101498.53
2022-10-02T23:29:26.905Z,101498.16
2022-10-02T23:31:59.238Z,101498.84
2022-10-02T23:34:36.021Z,101502.97
2022-10-02T23:37:15.177Z,101503.16
2022-10-02T23:39:48.492Z,101506.81
2022-10-02T23:42:21.492Z,101500.31
2022-10-02T23:44:55.735Z,101501.47
2022-10-02T23:47:31.046Z,101510.88
2022-10-02T23:49:59.853Z,101513.66
2022-10-02T23:52:43.354Z,101504.78
2022-10-02T23:55:27.358Z,101507.19
2022-10-02T23:58:23.713Z,101523.03
